Emneth, United Kingdom
Current Conditions -  °F | °C
As of 8:50 AM on Saturday 25 Oct 2014 (Local Time) from EGYM Reporting Station
Haze Haze  
Wind Chill: 41°   Ceiling: Unl
Heat Index: 45°   Visibility: 5mi
Dew Point: 43°   Wind: 7mph
Humidity: 93%   Direction: 190°S
Pressure: 30"   Gusts: NA
Location:  52.64°N, 0.21°E
Report Text: EGYM 250750Z AUTO 19006KT 8000 BR NCD 07/06 Q1016
Loading
Personal Weather Stations






























Interactive Weather Map New forecast layout! Learn more

10-Day Weather Forecast

Advertisements
Track Severe Weather on mobile